createdAt,value
2022-09-21T00:06:04.186Z,9
2022-09-21T00:16:04.600Z,9
2022-09-21T00:26:09.666Z,10
2022-09-21T00:36:08.425Z,10
2022-09-21T00:46:08.788Z,12
2022-09-21T00:56:09.542Z,10
2022-09-21T01:06:10.664Z,12
2022-09-21T01:16:11.650Z,10
2022-09-21T01:26:12.761Z,9
2022-09-21T01:36:18.055Z,10
2022-09-21T01:46:16.867Z,10
2022-09-21T01:56:17.786Z,10
2022-09-21T02:06:18.765Z,10
2022-09-21T02:16:19.940Z,8
2022-09-21T02:26:20.948Z,10
2022-09-21T02:36:21.806Z,10
2022-09-21T02:46:22.959Z,7
2022-09-21T02:56:23.802Z,9
2022-09-21T03:06:24.891Z,9
2022-09-21T03:16:25.137Z,9
2022-09-21T03:26:26.264Z,9
2022-09-21T03:36:27.334Z,9
2022-09-21T03:46:28.545Z,7
2022-09-21T03:56:29.534Z,9
2022-09-21T04:06:30.676Z,9
2022-09-21T04:16:35.505Z,9
2022-09-21T04:26:34.545Z,6
2022-09-21T04:36:37.014Z,7
2022-09-21T04:46:36.738Z,7
2022-09-21T04:56:37.694Z,10
2022-09-21T05:06:39.213Z,7
2022-09-21T05:16:40.260Z,9
2022-09-21T05:26:41.324Z,7
2022-09-21T05:36:42.220Z,6
2022-09-21T05:46:43.050Z,7
2022-09-21T05:56:43.973Z,7
2022-09-21T06:06:44.765Z,10
2022-09-21T06:16:46.350Z,7
2022-09-21T06:26:46.258Z,9
2022-09-21T06:36:46.864Z,7
2022-09-21T06:46:47.968Z,7
2022-09-21T06:56:48.843Z,7
2022-09-21T07:06:50.160Z,7
2022-09-21T07:16:51.044Z,7
2022-09-21T07:26:56.170Z,7
2022-09-21T07:36:54.587Z,6
2022-09-21T07:46:59.682Z,7
2022-09-21T07:57:02.493Z,7
2022-09-21T08:07:01.398Z,7
2022-09-21T08:17:06.055Z,7
2022-09-21T08:27:04.918Z,8
2022-09-21T08:37:05.902Z,7
2022-09-21T08:47:06.836Z,7
2022-09-21T08:57:07.429Z,9
2022-09-21T09:07:09.005Z,9
2022-09-21T09:17:13.032Z,10
2022-09-21T09:27:12.045Z,9
2022-09-21T09:37:12.477Z,10
2022-09-21T09:47:13.417Z,9
2022-09-21T09:57:14.459Z,9
2022-09-21T10:07:15.218Z,10
2022-09-21T10:17:27.039Z,7
2022-09-21T10:27:34.568Z,6
2022-09-21T10:37:34.397Z,9
2022-09-21T10:47:34.955Z,7
2022-09-21T10:57:37.156Z,7
2022-09-21T11:07:38.190Z,7
2022-09-21T11:17:38.039Z,7
2022-09-21T11:27:38.787Z,7
2022-09-21T11:37:43.516Z,7
2022-09-21T11:47:42.245Z,9
2022-09-21T11:57:42.865Z,9
2022-09-21T12:07:47.789Z,7
2022-09-21T12:17:50.235Z,6
2022-09-21T12:27:48.499Z,8
2022-09-21T12:37:49.266Z,7
2022-09-21T12:47:49.914Z,7
2022-09-21T12:58:14.912Z,6
2022-09-21T13:08:11.013Z,6
2022-09-21T13:18:09.398Z,6
2022-09-21T13:28:10.834Z,7
2022-09-21T13:38:10.575Z,5
2022-09-21T13:48:10.985Z,7
2022-09-21T13:58:15.573Z,6
2022-09-21T14:08:13.773Z,6
2022-09-21T14:18:14.174Z,7
2022-09-21T14:28:14.811Z,6
2022-09-21T14:38:18.923Z,4
2022-09-21T14:48:17.334Z,4
2022-09-21T14:58:19.043Z,4
2022-09-21T15:08:19.850Z,6
2022-09-21T15:18:20.229Z,6
2022-09-21T15:28:24.833Z,4
2022-09-21T15:38:23.151Z,6
2022-09-21T15:48:31.582Z,6
2022-09-21T15:58:27.774Z,4
2022-09-21T16:08:28.271Z,6
2022-09-21T16:18:40.850Z,4
2022-09-21T16:28:36.408Z,6
2022-09-21T16:38:36.884Z,4
2022-09-21T16:48:37.290Z,5
2022-09-21T16:58:36.847Z,4
2022-09-21T17:08:36.841Z,7
2022-09-21T17:18:40.799Z,4
2022-09-21T17:28:39.450Z,6
2022-09-21T17:38:52.201Z,4
2022-09-21T17:48:51.674Z,6
2022-09-21T17:58:52.514Z,6
2022-09-21T18:08:53.928Z,6
2022-09-21T18:18:54.182Z,6
2022-09-21T18:28:54.859Z,6
2022-09-21T18:38:58.509Z,5
2022-09-21T18:48:59.136Z,6
2022-09-21T18:59:00.293Z,6
2022-09-21T19:09:04.575Z,4
2022-09-21T19:19:12.073Z,4
2022-09-21T19:29:08.493Z,6
2022-09-21T19:39:11.197Z,7
2022-09-21T19:49:10.868Z,4
2022-09-21T19:59:10.963Z,4
2022-09-21T20:09:13.040Z,4
2022-09-21T20:19:12.679Z,6
2022-09-21T20:29:13.635Z,4
2022-09-21T20:39:18.670Z,4
2022-09-21T20:49:17.995Z,4
2022-09-21T20:59:20.816Z,4
2022-09-21T21:09:19.490Z,4
2022-09-21T21:19:27.629Z,4
2022-09-21T21:29:23.803Z,6
2022-09-21T21:39:23.976Z,4
2022-09-21T21:49:24.108Z,4
2022-09-21T21:59:24.370Z,4
2022-09-21T22:09:24.944Z,4
2022-09-21T22:19:25.982Z,4
2022-09-21T22:29:29.421Z,6
2022-09-21T22:39:28.356Z,4
2022-09-21T22:49:29.397Z,7
2022-09-21T22:59:30.437Z,6
2022-09-21T23:09:31.416Z,6
2022-09-21T23:19:32.108Z,7
2022-09-21T23:29:32.861Z,7
2022-09-21T23:39:33.661Z,6
2022-09-21T23:49:34.450Z,9
2022-09-21T23:59:35.051Z,9
